Cambridge, MA

9:54 AM EST on February 06, 2016 (GMT -0500)
Huron Village | | Change Station
CLOSE
Current Station
Personal Weather Station
Location: Cambridge, MA
Elevation: 62 ft
Nearby Weather Stations

Elev 62 ft 42.38 °N, 71.13 °W | Updated 3 minutes ago

Clear
Clear
33.8 °F
Feels Like 34 °F
N
0.0
Wind Variable Wind from North
Gusts 0.0 mph

Today
High -- | Low -- °F
--% Chance of Precip.
Yesterday
High -- | Low -- °F
Precip. -- in
Pressure 30.38 in
Visibility 10.0 miles
Clouds Clear
Windchill 34 °F
Dew Point 24 °F
Humidity 68%
Rainfall 0.00 in
Snow Depth Not available.
6:53 AM 5:04 PM
Waning Crescent, 5% visible
METAR KBOS 061354Z 25004KT 10SM CLR M02/M07 A3038 RMK AO2 SLP285 T10171072
Pressure 30.38 in
Visibility 10.0 miles
Clouds Clear
Windchill 34 °F
Dew Point 24 °F
Humidity 68%
Rainfall 0.00 in
Snow Depth Not available.
6:53 AM 5:04 PM
Waning Crescent, 5% visible
METAR KBOS 061354Z 25004KT 10SM CLR M02/M07 A3038 RMK AO2 SLP285 T10171072

10-Day Weather Forecast

Almanac

Astronomy

Feb. 06, 2016 Rise Set
Actual Time
Civil Twilight
Nautical Twilight
Astronomical Twilight
Moon
Length of Visible Light
Length of Day
Tomorrow will be .
, % of the Moon is Illuminated

Today's Extremes

State Highs State Lows

Community

WunderPhotos

Upload Photos

1,890,983 photos uploaded!

WunderBlog® & News

Nearby

Air Quality

  Air Quality AQ Index Pollutant
Not available.

Snow Depth

Station Depth Elevation

Earthquake Activity

City Distance Mag. Time & Date
Minimum magnitude displayed is 2.5.

Coastal Water Temperatures

Place Temperature

Stations

Nearby Weather Stations

Station Location Temp. Windchill Dew Point Humidity Wind Precip. Elev Updated Type
                   

Watches & Warnings

There are currently no watches in effect.